createdAt,value
2023-01-12T00:00:39.086Z,0.00
2023-01-12T00:01:39.007Z,0.00
2023-01-12T00:02:39.028Z,0.00
2023-01-12T00:03:38.991Z,0.00
2023-01-12T00:04:38.993Z,0.00
2023-01-12T00:05:38.954Z,0.00
2023-01-12T00:06:38.944Z,0.00
2023-01-12T00:07:38.948Z,0.00
2023-01-12T00:08:38.926Z,0.00
2023-01-12T00:09:38.907Z,0.00
2023-01-12T00:10:38.900Z,0.00
2023-01-12T00:11:38.863Z,0.00
2023-01-12T00:12:38.879Z,0.00
2023-01-12T00:13:38.865Z,0.00
2023-01-12T00:14:38.869Z,0.00
2023-01-12T00:15:38.860Z,0.00
2023-01-12T00:16:38.854Z,0.00
2023-01-12T00:17:38.810Z,0.00
2023-01-12T00:18:38.804Z,0.00
2023-01-12T00:19:38.920Z,0.00
2023-01-12T00:20:38.760Z,0.00
2023-01-12T00:21:38.740Z,0.00
2023-01-12T00:22:38.744Z,0.00
2023-01-12T00:23:38.718Z,0.00
2023-01-12T00:24:38.738Z,0.00
2023-01-12T00:25:38.682Z,0.00
2023-01-12T00:26:38.694Z,0.00
2023-01-12T00:27:38.662Z,0.00
2023-01-12T00:28:38.663Z,0.00
2023-01-12T00:29:38.653Z,0.00
2023-01-12T00:30:38.634Z,0.00
2023-01-12T00:31:38.606Z,0.00
2023-01-12T00:32:38.598Z,0.00
2023-01-12T00:33:38.594Z,0.00
2023-01-12T00:34:38.617Z,0.00
2023-01-12T00:35:38.622Z,0.00
2023-01-12T00:36:38.580Z,0.00
2023-01-12T00:37:38.565Z,0.00
2023-01-12T00:38:38.515Z,0.00
2023-01-12T00:39:40.784Z,0.00
2023-01-12T00:40:38.533Z,0.00
2023-01-12T00:41:38.496Z,0.00
2023-01-12T00:42:38.492Z,0.00
2023-01-12T00:43:38.459Z,0.00
2023-01-12T00:44:38.451Z,0.00
2023-01-12T00:45:38.441Z,0.00
2023-01-12T00:46:38.425Z,0.00
2023-01-12T00:47:38.401Z,0.00
2023-01-12T00:48:38.394Z,0.00
2023-01-12T00:49:38.364Z,0.00
2023-01-12T00:50:38.443Z,0.00
2023-01-12T00:51:38.365Z,0.00
2023-01-12T00:52:38.376Z,0.00
2023-01-12T00:53:38.336Z,0.00
2023-01-12T00:54:38.327Z,0.00
2023-01-12T00:55:38.301Z,0.00
2023-01-12T00:56:38.295Z,0.00
2023-01-12T00:57:38.337Z,0.00
2023-01-12T00:58:38.251Z,0.00
2023-01-12T00:59:38.264Z,0.00
2023-01-12T01:00:38.252Z,0.00
2023-01-12T01:01:38.364Z,0.00
2023-01-12T01:02:38.257Z,0.00
2023-01-12T01:03:38.208Z,0.00
2023-01-12T01:04:38.182Z,0.00
2023-01-12T01:05:38.174Z,0.00
2023-01-12T01:06:38.177Z,0.00
2023-01-12T01:07:38.141Z,0.00
2023-01-12T01:08:38.156Z,0.00
2023-01-12T01:09:38.131Z,0.00
2023-01-12T01:10:38.115Z,0.00
2023-01-12T01:11:38.074Z,0.00
2023-01-12T01:12:38.099Z,0.00
2023-01-12T01:13:38.078Z,0.00
2023-01-12T01:14:38.069Z,0.00
2023-01-12T01:15:38.140Z,0.00
2023-01-12T01:16:38.056Z,0.00
2023-01-12T01:17:38.023Z,0.00
2023-01-12T01:18:38.015Z,0.00
2023-01-12T01:19:37.999Z,0.00
2023-01-12T01:20:37.964Z,0.00
2023-01-12T01:21:37.961Z,0.00
2023-01-12T01:22:37.980Z,0.00
2023-01-12T01:23:37.985Z,0.00
2023-01-12T01:24:37.942Z,0.00
2023-01-12T01:25:37.899Z,0.00
2023-01-12T01:26:37.928Z,0.00
2023-01-12T01:27:37.885Z,0.00
2023-01-12T01:28:37.858Z,0.00
2023-01-12T01:29:37.848Z,0.00
2023-01-12T01:30:37.846Z,0.00
2023-01-12T01:31:37.847Z,0.00
2023-01-12T01:32:37.840Z,0.00
2023-01-12T01:33:37.826Z,0.00
2023-01-12T01:34:37.792Z,0.00
2023-01-12T01:35:37.771Z,0.00
2023-01-12T01:36:37.782Z,0.00
2023-01-12T01:37:37.789Z,0.00
2023-01-12T01:38:37.732Z,0.00
2023-01-12T01:39:37.748Z,0.00
2023-01-12T01:40:37.722Z,0.00
2023-01-12T01:41:37.698Z,0.00
2023-01-12T01:42:37.708Z,0.00
2023-01-12T01:43:37.674Z,0.00
2023-01-12T01:44:37.655Z,0.00
2023-01-12T01:45:37.649Z,0.00
2023-01-12T01:46:37.701Z,0.00
2023-01-12T01:47:37.639Z,0.00
2023-01-12T01:48:37.599Z,0.00
2023-01-12T01:49:37.589Z,0.00
2023-01-12T01:50:37.579Z,0.00
2023-01-12T01:51:37.572Z,0.00
2023-01-12T01:52:37.578Z,0.00
2023-01-12T01:53:37.645Z,0.00
2023-01-12T01:54:37.537Z,0.00
2023-01-12T01:55:37.531Z,0.00
2023-01-12T01:56:37.527Z,0.00
2023-01-12T01:57:37.494Z,0.00
2023-01-12T01:58:37.655Z,0.00
2023-01-12T01:59:37.474Z,0.00
2023-01-12T02:00:37.461Z,0.00
2023-01-12T02:01:37.597Z,0.00
2023-01-12T02:02:37.428Z,0.00
2023-01-12T02:03:37.414Z,0.00
2023-01-12T02:04:37.402Z,0.00
2023-01-12T02:05:37.389Z,0.00
2023-01-12T02:06:37.400Z,0.00
2023-01-12T02:07:37.440Z,0.00
2023-01-12T02:08:37.426Z,0.00
2023-01-12T02:09:37.435Z,0.00
2023-01-12T02:10:37.396Z,0.00
2023-01-12T02:11:37.353Z,0.00
2023-01-12T02:12:37.315Z,0.00
2023-01-12T02:13:37.319Z,0.00
2023-01-12T02:14:37.300Z,0.00
2023-01-12T02:15:37.289Z,0.00
2023-01-12T02:16:37.232Z,0.00
2023-01-12T02:17:37.252Z,0.00
2023-01-12T02:18:37.256Z,0.00
2023-01-12T02:19:37.227Z,0.00
2023-01-12T02:20:37.243Z,0.00
2023-01-12T02:21:37.171Z,0.00
2023-01-12T02:22:37.261Z,0.00
2023-01-12T02:23:37.177Z,0.00
2023-01-12T02:24:37.133Z,0.00
2023-01-12T02:25:37.122Z,0.00
2023-01-12T02:26:37.123Z,0.00
2023-01-12T02:27:37.096Z,0.00
2023-01-12T02:28:37.110Z,0.00
2023-01-12T02:29:37.092Z,0.00
2023-01-12T02:30:37.074Z,0.00
2023-01-12T02:31:37.088Z,0.00
2023-01-12T02:32:37.060Z,0.00
2023-01-12T02:33:37.033Z,0.00
2023-01-12T02:34:36.997Z,0.00
2023-01-12T02:35:37.034Z,0.00
2023-01-12T02:36:36.969Z,0.00
2023-01-12T02:37:36.961Z,0.00
2023-01-12T02:38:36.985Z,0.00
2023-01-12T02:39:38.996Z,0.00
2023-01-12T02:40:36.954Z,0.00
2023-01-12T02:41:36.940Z,0.00
2023-01-12T02:42:36.897Z,0.00
2023-01-12T02:43:36.928Z,0.00
2023-01-12T02:44:36.894Z,0.00
2023-01-12T02:45:36.889Z,0.00
2023-01-12T02:46:36.932Z,0.00
2023-01-12T02:47:36.845Z,0.00
2023-01-12T02:48:36.812Z,0.00
2023-01-12T02:49:36.815Z,0.00
2023-01-12T02:50:36.805Z,0.00
2023-01-12T02:51:36.802Z,0.00
2023-01-12T02:52:36.811Z,0.00
2023-01-12T02:53:36.758Z,0.00
2023-01-12T02:54:36.737Z,0.00
2023-01-12T02:55:36.746Z,0.00
2023-01-12T02:56:36.741Z,0.00
2023-01-12T02:57:36.715Z,0.00
2023-01-12T02:58:36.698Z,0.00
2023-01-12T02:59:36.693Z,0.00
2023-01-12T03:00:36.713Z,0.00
2023-01-12T03:01:36.776Z,0.00
2023-01-12T03:02:36.665Z,0.00
2023-01-12T03:03:36.637Z,0.00
2023-01-12T03:04:36.621Z,0.00
2023-01-12T03:05:36.632Z,0.00
2023-01-12T03:06:36.602Z,0.00
2023-01-12T03:07:36.624Z,0.00
2023-01-12T03:08:36.560Z,0.00
2023-01-12T03:09:36.567Z,0.00
2023-01-12T03:10:36.565Z,0.00
2023-01-12T03:11:36.563Z,0.00
2023-01-12T03:12:36.514Z,0.00
2023-01-12T03:13:36.532Z,0.00
2023-01-12T03:14:36.509Z,0.00
2023-01-12T03:15:36.516Z,0.00
2023-01-12T03:16:36.464Z,0.00
2023-01-12T03:17:36.451Z,0.00
2023-01-12T03:18:36.445Z,0.00
2023-01-12T03:19:36.433Z,0.00
2023-01-12T03:20:36.396Z,0.00
2023-01-12T03:21:36.406Z,0.00
2023-01-12T03:22:36.584Z,0.00
2023-01-12T03:23:36.371Z,0.00
2023-01-12T03:24:36.367Z,0.00
2023-01-12T03:25:36.380Z,0.00
2023-01-12T03:26:36.350Z,0.00
2023-01-12T03:27:36.348Z,0.00
2023-01-12T03:28:36.284Z,0.00
2023-01-12T03:29:36.277Z,0.00
2023-01-12T03:30:36.277Z,0.00
2023-01-12T03:31:36.328Z,0.00
2023-01-12T03:32:36.282Z,0.00
2023-01-12T03:33:36.222Z,0.00
2023-01-12T03:34:36.208Z,0.00
2023-01-12T03:35:36.241Z,0.00
2023-01-12T03:36:36.233Z,0.00
2023-01-12T03:37:36.174Z,0.00
2023-01-12T03:38:36.207Z,0.00
2023-01-12T03:39:36.187Z,0.00
2023-01-12T03:40:36.167Z,0.00
2023-01-12T03:41:36.137Z,0.00
2023-01-12T03:42:36.128Z,0.00
2023-01-12T03:43:36.121Z,0.00
2023-01-12T03:44:36.123Z,0.00
2023-01-12T03:45:36.128Z,0.00
2023-01-12T03:46:36.100Z,0.00
2023-01-12T03:47:36.070Z,0.00
2023-01-12T03:48:36.038Z,0.00
2023-01-12T03:49:36.032Z,0.00
2023-01-12T03:50:35.991Z,0.00
2023-01-12T03:51:36.010Z,0.00
2023-01-12T03:52:35.989Z,0.00
2023-01-12T03:53:35.990Z,0.00
2023-01-12T03:54:35.971Z,0.00
2023-01-12T03:55:35.971Z,0.00
2023-01-12T03:56:35.966Z,0.00
2023-01-12T03:57:35.912Z,0.00
2023-01-12T03:58:35.925Z,0.00
2023-01-12T03:59:35.887Z,0.00
2023-01-12T04:00:36.014Z,0.00
2023-01-12T04:01:35.939Z,0.00
2023-01-12T04:02:35.850Z,0.00
2023-01-12T04:03:35.893Z,0.00
2023-01-12T04:04:35.838Z,0.00
2023-01-12T04:05:35.834Z,0.00
2023-01-12T04:06:35.808Z,0.00
2023-01-12T04:07:35.784Z,0.00
2023-01-12T04:08:35.759Z,0.00
2023-01-12T04:09:35.800Z,0.00
2023-01-12T04:10:35.758Z,0.00
2023-01-12T04:11:35.743Z,0.00
2023-01-12T04:12:35.724Z,0.00
2023-01-12T04:13:35.704Z,0.00
2023-01-12T04:14:35.695Z,0.00
2023-01-12T04:15:35.670Z,0.00
2023-01-12T04:16:35.702Z,0.00
2023-01-12T04:17:35.676Z,0.00
2023-01-12T04:18:35.643Z,0.00
2023-01-12T04:19:35.644Z,0.00
2023-01-12T04:20:35.618Z,0.00
2023-01-12T04:21:35.601Z,0.00
2023-01-12T04:22:35.603Z,0.00
2023-01-12T04:23:35.623Z,0.00
2023-01-12T04:24:35.563Z,0.00
2023-01-12T04:25:35.557Z,0.00
2023-01-12T04:26:35.543Z,0.00
2023-01-12T04:27:35.520Z,0.00
2023-01-12T04:28:35.535Z,0.00
2023-01-12T04:29:35.505Z,0.00
2023-01-12T04:30:35.491Z,0.00
2023-01-12T04:31:35.531Z,0.00
2023-01-12T04:32:35.449Z,0.00
2023-01-12T04:33:35.437Z,0.00
2023-01-12T04:34:35.456Z,0.00
2023-01-12T04:35:35.433Z,0.00
2023-01-12T04:36:35.416Z,0.00
2023-01-12T04:37:35.401Z,0.00
2023-01-12T04:38:35.383Z,0.00
2023-01-12T04:39:35.411Z,0.00
2023-01-12T04:40:35.345Z,0.00
2023-01-12T04:41:35.340Z,0.00
2023-01-12T04:42:35.337Z,0.00
2023-01-12T04:43:35.324Z,0.00
2023-01-12T04:44:35.345Z,0.00
2023-01-12T04:45:35.353Z,0.00
2023-01-12T04:46:35.295Z,0.00
2023-01-12T04:47:35.293Z,0.00
2023-01-12T04:48:35.255Z,0.00
2023-01-12T04:49:35.245Z,0.00
2023-01-12T04:50:35.205Z,0.00
2023-01-12T04:51:35.222Z,0.00
2023-01-12T04:52:35.190Z,0.00
2023-01-12T04:53:35.251Z,0.00
2023-01-12T04:54:35.169Z,0.00
2023-01-12T04:55:35.167Z,0.00
2023-01-12T04:56:35.157Z,0.00
2023-01-12T04:57:35.152Z,0.00
2023-01-12T04:58:35.125Z,0.00
2023-01-12T04:59:35.112Z,0.00
2023-01-12T05:00:35.121Z,0.00
2023-01-12T05:01:35.127Z,0.00
2023-01-12T05:02:35.065Z,0.00
2023-01-12T05:03:35.071Z,0.00
2023-01-12T05:04:35.047Z,0.00
2023-01-12T05:05:35.020Z,0.00
2023-01-12T05:06:34.998Z,0.00
2023-01-12T05:07:35.009Z,0.00
2023-01-12T05:08:34.991Z,0.00
2023-01-12T05:09:35.000Z,0.00
2023-01-12T05:10:34.963Z,0.00
2023-01-12T05:11:34.950Z,0.00
2023-01-12T05:12:34.967Z,0.00
2023-01-12T05:13:34.925Z,0.00
2023-01-12T05:14:34.926Z,0.00
2023-01-12T05:15:34.911Z,0.00
2023-01-12T05:16:34.966Z,0.00
2023-01-12T05:17:34.876Z,0.00
2023-01-12T05:18:34.865Z,0.00
2023-01-12T05:19:34.879Z,0.00
2023-01-12T05:20:34.823Z,0.00
2023-01-12T05:21:34.843Z,0.00
2023-01-12T05:22:34.794Z,0.00
2023-01-12T05:23:34.783Z,0.00
2023-01-12T05:24:34.772Z,0.00
2023-01-12T05:25:34.772Z,0.00
2023-01-12T05:26:34.754Z,0.00
2023-01-12T05:27:34.776Z,0.00
2023-01-12T05:28:34.732Z,0.00
2023-01-12T05:29:34.714Z,0.00
2023-01-12T05:30:34.748Z,0.00
2023-01-12T05:31:34.701Z,0.00
2023-01-12T05:32:34.691Z,0.00
2023-01-12T05:33:34.715Z,0.00
2023-01-12T05:34:34.653Z,0.00
2023-01-12T05:35:34.631Z,0.00
2023-01-12T05:36:34.651Z,0.00
2023-01-12T05:37:34.632Z,0.00
2023-01-12T05:38:34.591Z,0.00
2023-01-12T05:39:34.626Z,0.00
2023-01-12T05:40:34.561Z,0.00
2023-01-12T05:41:34.554Z,0.00
2023-01-12T05:42:34.562Z,0.00
2023-01-12T05:43:34.544Z,0.00
2023-01-12T05:44:34.504Z,0.00
2023-01-12T05:45:34.527Z,0.00
2023-01-12T05:46:34.505Z,0.00
2023-01-12T05:47:34.473Z,0.00
2023-01-12T05:48:34.454Z,0.00
2023-01-12T05:49:34.470Z,0.00
2023-01-12T05:50:34.432Z,0.00
2023-01-12T05:51:34.435Z,0.00
2023-01-12T05:52:34.438Z,0.00
2023-01-12T05:53:34.417Z,0.00
2023-01-12T05:54:34.378Z,0.00
2023-01-12T05:55:34.389Z,0.00
2023-01-12T05:56:34.364Z,0.00
2023-01-12T05:57:34.359Z,0.00
2023-01-12T05:58:34.324Z,0.00
2023-01-12T05:59:34.357Z,0.00
2023-01-12T06:00:34.358Z,0.00
2023-01-12T06:01:34.292Z,0.00
2023-01-12T06:02:34.388Z,0.00
2023-01-12T06:03:34.280Z,0.00
2023-01-12T06:04:34.312Z,0.00
2023-01-12T06:05:34.286Z,0.00
2023-01-12T06:06:34.265Z,0.00
2023-01-12T06:07:34.234Z,0.00
2023-01-12T06:08:34.219Z,0.00
2023-01-12T06:09:34.206Z,0.00
2023-01-12T06:10:34.189Z,0.00
2023-01-12T06:11:34.168Z,0.00
2023-01-12T06:12:34.142Z,0.00
2023-01-12T06:13:34.141Z,0.00
2023-01-12T06:14:34.132Z,0.00
2023-01-12T06:15:34.203Z,0.00
2023-01-12T06:16:34.104Z,0.00
2023-01-12T06:17:34.105Z,0.00
2023-01-12T06:18:34.068Z,0.00
2023-01-12T06:19:34.055Z,0.00
2023-01-12T06:20:34.043Z,0.00
2023-01-12T06:21:34.045Z,0.00
2023-01-12T06:22:34.022Z,0.00
2023-01-12T06:23:35.322Z,0.00
2023-01-12T06:24:34.001Z,0.00
2023-01-12T06:25:33.975Z,0.00
2023-01-12T06:26:33.979Z,0.00
2023-01-12T06:27:33.950Z,0.00
2023-01-12T06:28:33.955Z,0.00
2023-01-12T06:29:33.938Z,0.00
2023-01-12T06:30:33.919Z,0.00
2023-01-12T06:31:33.957Z,0.00
2023-01-12T06:32:33.882Z,0.00
2023-01-12T06:33:33.879Z,0.00
2023-01-12T06:34:33.859Z,0.00
2023-01-12T06:35:33.858Z,4.00
2023-01-12T06:36:33.838Z,4.00
2023-01-12T06:37:33.841Z,4.00
2023-01-12T06:38:33.826Z,0.00
2023-01-12T06:39:33.817Z,4.00
2023-01-12T06:40:33.790Z,4.00
2023-01-12T06:41:33.789Z,8.00
2023-01-12T06:42:33.755Z,4.00
2023-01-12T06:43:33.749Z,8.00
2023-01-12T06:44:33.761Z,8.00
2023-01-12T06:45:33.730Z,8.00
2023-01-12T06:46:33.769Z,12.00
2023-01-12T06:47:33.779Z,12.00
2023-01-12T06:48:38.857Z,12.00
2023-01-12T06:49:33.687Z,16.00
2023-01-12T06:50:33.662Z,20.00
2023-01-12T06:51:33.647Z,24.00
2023-01-12T06:52:33.627Z,28.00
2023-01-12T06:53:33.618Z,32.00
2023-01-12T06:54:33.604Z,28.00
2023-01-12T06:55:33.588Z,36.00
2023-01-12T06:56:33.606Z,40.00
2023-01-12T06:57:33.578Z,44.00
2023-01-12T06:58:33.544Z,44.00
2023-01-12T06:59:33.545Z,48.00
2023-01-12T07:00:33.552Z,60.00
2023-01-12T07:01:33.600Z,64.00
2023-01-12T07:02:33.535Z,72.00
2023-01-12T07:03:33.492Z,80.00
2023-01-12T07:04:33.501Z,96.00
2023-01-12T07:05:33.464Z,108.00
2023-01-12T07:06:33.460Z,116.00
2023-01-12T07:07:33.428Z,128.00
2023-01-12T07:08:33.442Z,152.00
2023-01-12T07:09:33.423Z,164.00
2023-01-12T07:10:33.417Z,180.00
2023-01-12T07:11:33.378Z,196.00
2023-01-12T07:12:33.378Z,208.00
2023-01-12T07:13:33.364Z,216.00
2023-01-12T07:14:33.359Z,224.00
2023-01-12T07:15:33.334Z,240.00
2023-01-12T07:16:33.332Z,252.00
2023-01-12T07:17:33.296Z,264.00
2023-01-12T07:18:33.334Z,268.00
2023-01-12T07:19:33.287Z,268.00
2023-01-12T07:20:33.284Z,276.00
2023-01-12T07:21:33.272Z,292.00
2023-01-12T07:22:33.240Z,308.00
2023-01-12T07:23:33.245Z,332.00
2023-01-12T07:24:33.227Z,352.00
2023-01-12T07:25:33.208Z,376.00
2023-01-12T07:26:33.196Z,396.00
2023-01-12T07:27:33.181Z,420.00
2023-01-12T07:28:33.196Z,452.00
2023-01-12T07:29:33.140Z,484.00
2023-01-12T07:30:33.166Z,520.00
2023-01-12T07:31:33.128Z,568.00
2023-01-12T07:32:33.141Z,628.00
2023-01-12T07:33:33.114Z,696.00
2023-01-12T07:34:33.095Z,772.00
2023-01-12T07:35:33.076Z,848.00
2023-01-12T07:36:33.083Z,928.00
2023-01-12T07:37:33.056Z,996.00
2023-01-12T07:38:33.064Z,1056.00
2023-01-12T07:39:33.061Z,1124.00
2023-01-12T07:40:33.105Z,1192.00
2023-01-12T07:41:33.031Z,1268.00
2023-01-12T07:42:33.016Z,1360.00
2023-01-12T07:43:32.989Z,1480.00
2023-01-12T07:44:32.995Z,1644.00
2023-01-12T07:45:32.982Z,1828.00
2023-01-12T07:46:33.041Z,2024.00
2023-01-12T07:47:32.922Z,2184.00
2023-01-12T07:48:32.935Z,2308.00
2023-01-12T07:49:32.947Z,2388.00
2023-01-12T07:50:32.932Z,2388.00
2023-01-12T07:51:32.855Z,2320.00
2023-01-12T07:52:32.873Z,2208.00
2023-01-12T07:53:32.833Z,2080.00
2023-01-12T07:54:32.833Z,1948.00
2023-01-12T07:55:32.856Z,1780.00
2023-01-12T07:56:32.883Z,1624.00
2023-01-12T07:57:32.815Z,1552.00
2023-01-12T07:58:32.794Z,1552.00
2023-01-12T07:59:32.769Z,1564.00
2023-01-12T08:00:32.776Z,1604.00
2023-01-12T08:01:32.960Z,1680.00
2023-01-12T08:02:32.728Z,1728.00
2023-01-12T08:03:32.697Z,1736.00
2023-01-12T08:04:32.693Z,1744.00
2023-01-12T08:05:32.745Z,1720.00
2023-01-12T08:06:32.690Z,1720.00
2023-01-12T08:07:32.674Z,1756.00
2023-01-12T08:08:32.643Z,1804.00
2023-01-12T08:09:32.633Z,1840.00
2023-01-12T08:10:32.633Z,1908.00
2023-01-12T08:11:32.607Z,1920.00
2023-01-12T08:12:32.596Z,1936.00
2023-01-12T08:13:32.569Z,1980.00
2023-01-12T08:14:32.576Z,2016.00
2023-01-12T08:15:32.536Z,2036.00
2023-01-12T08:16:32.569Z,2044.00
2023-01-12T08:17:32.532Z,2000.00
2023-01-12T08:18:32.544Z,1888.00
2023-01-12T08:19:32.512Z,1764.00
2023-01-12T08:20:32.481Z,1668.00
2023-01-12T08:21:32.495Z,1600.00
2023-01-12T08:22:32.477Z,1592.00
2023-01-12T08:23:32.458Z,1628.00
2023-01-12T08:24:32.440Z,1704.00
2023-01-12T08:25:32.430Z,1768.00
2023-01-12T08:26:32.430Z,1792.00
2023-01-12T08:27:32.378Z,1796.00
2023-01-12T08:28:32.393Z,1832.00
2023-01-12T08:29:32.374Z,1932.00
2023-01-12T08:30:32.381Z,2080.00
2023-01-12T08:31:32.394Z,2204.00
2023-01-12T08:32:32.351Z,2276.00
2023-01-12T08:33:32.365Z,2308.00
2023-01-12T08:34:32.338Z,2364.00
2023-01-12T08:35:32.287Z,2420.00
2023-01-12T08:36:32.290Z,2468.00
2023-01-12T08:37:32.274Z,2608.00
2023-01-12T08:38:32.275Z,2780.00
2023-01-12T08:39:32.267Z,3012.00
2023-01-12T08:40:32.289Z,3224.00
2023-01-12T08:41:32.249Z,3448.00
2023-01-12T08:42:32.226Z,3440.00
2023-01-12T08:43:32.214Z,3444.00
2023-01-12T08:44:32.218Z,3408.00
2023-01-12T08:45:32.223Z,3400.00
2023-01-12T08:46:32.275Z,3416.00
2023-01-12T08:47:32.203Z,3452.00
2023-01-12T08:48:32.126Z,3532.00
2023-01-12T08:49:32.113Z,3632.00
2023-01-12T08:50:32.090Z,3728.00
2023-01-12T08:51:32.084Z,3776.00
2023-01-12T08:52:32.097Z,3804.00
2023-01-12T08:53:32.045Z,3852.00
2023-01-12T08:54:32.061Z,3836.00
2023-01-12T08:55:32.026Z,3732.00
2023-01-12T08:56:32.016Z,3668.00
2023-01-12T08:57:31.997Z,3640.00
2023-01-12T08:58:31.991Z,3612.00
2023-01-12T08:59:32.007Z,3628.00
2023-01-12T09:00:32.013Z,3656.00
2023-01-12T09:01:32.058Z,3700.00
2023-01-12T09:02:32.002Z,3752.00
2023-01-12T09:03:31.912Z,3800.00
2023-01-12T09:04:31.903Z,3764.00
2023-01-12T09:05:31.881Z,3620.00
2023-01-12T09:06:31.887Z,3492.00
2023-01-12T09:07:31.899Z,3372.00
2023-01-12T09:08:31.865Z,3404.00
2023-01-12T09:09:31.853Z,3588.00
2023-01-12T09:10:31.852Z,3872.00
2023-01-12T09:11:31.817Z,4196.00
2023-01-12T09:12:31.802Z,4344.00
2023-01-12T09:13:31.788Z,4260.00
2023-01-12T09:14:31.777Z,4076.00
2023-01-12T09:15:31.773Z,3844.00
2023-01-12T09:16:31.797Z,3560.00
2023-01-12T09:17:31.770Z,3436.00
2023-01-12T09:18:31.741Z,3616.00
2023-01-12T09:19:31.712Z,3884.00
2023-01-12T09:20:31.686Z,4004.00
2023-01-12T09:21:31.706Z,3748.00
2023-01-12T09:22:31.659Z,3340.00
2023-01-12T09:23:31.672Z,3136.00
2023-01-12T09:24:31.682Z,3260.00
2023-01-12T09:25:31.639Z,3464.00
2023-01-12T09:26:31.698Z,3620.00
2023-01-12T09:27:31.632Z,3672.00
2023-01-12T09:28:31.609Z,3712.00
2023-01-12T09:29:31.576Z,3668.00
2023-01-12T09:30:31.656Z,3444.00
2023-01-12T09:31:31.593Z,3444.00
2023-01-12T09:32:36.814Z,3752.00
2023-01-12T09:33:31.539Z,4280.00
2023-01-12T09:34:31.561Z,4624.00
2023-01-12T09:35:31.505Z,4824.00
2023-01-12T09:36:31.521Z,5100.00
2023-01-12T09:37:31.470Z,5548.00
2023-01-12T09:38:31.485Z,5772.00
2023-01-12T09:39:31.476Z,5600.00
2023-01-12T09:40:31.487Z,5300.00
2023-01-12T09:41:31.421Z,5252.00
2023-01-12T09:42:31.447Z,5404.00
2023-01-12T09:43:31.394Z,6000.00
2023-01-12T09:44:31.421Z,7116.00
2023-01-12T09:45:31.435Z,8476.00
2023-01-12T09:46:31.410Z,9764.00
2023-01-12T09:47:31.362Z,10148.00
2023-01-12T09:48:31.333Z,9320.00
2023-01-12T09:49:31.320Z,7816.00
2023-01-12T09:50:31.333Z,6352.00
2023-01-12T09:51:31.313Z,5912.00
2023-01-12T09:52:31.304Z,6668.00
2023-01-12T09:53:31.337Z,7224.00
2023-01-12T09:54:31.282Z,7724.00
2023-01-12T09:55:31.246Z,8592.00
2023-01-12T09:56:31.238Z,8948.00
2023-01-12T09:57:31.197Z,10524.00
2023-01-12T09:58:31.231Z,9864.00
2023-01-12T09:59:31.224Z,11436.00
2023-01-12T10:00:32.533Z,12796.00
2023-01-12T10:01:31.196Z,12792.00
2023-01-12T10:02:33.143Z,13356.00
2023-01-12T10:03:31.184Z,10324.00
2023-01-12T10:04:31.134Z,8616.00
2023-01-12T10:05:38.791Z,7836.00
2023-01-12T10:06:31.110Z,7248.00
2023-01-12T10:07:31.085Z,6476.00
2023-01-12T10:08:31.164Z,5760.00
2023-01-12T10:09:31.043Z,5084.00
2023-01-12T10:10:31.026Z,4716.00
2023-01-12T10:11:31.044Z,4592.00
2023-01-12T10:12:31.066Z,4748.00
2023-01-12T10:13:30.982Z,5224.00
2023-01-12T10:14:30.970Z,5924.00
2023-01-12T10:15:30.949Z,6672.00
2023-01-12T10:16:30.994Z,7304.00
2023-01-12T10:17:38.526Z,7768.00
2023-01-12T10:18:30.952Z,8492.00
2023-01-12T10:19:30.915Z,9104.00
2023-01-12T10:20:30.904Z,9512.00
2023-01-12T10:21:30.903Z,10008.00
2023-01-12T10:22:30.909Z,11412.00
2023-01-12T10:23:30.956Z,12324.00
2023-01-12T10:24:30.858Z,11784.00
2023-01-12T10:25:30.873Z,9868.00
2023-01-12T10:26:30.818Z,8156.00
2023-01-12T10:27:30.821Z,7032.00
2023-01-12T10:28:30.884Z,6564.00
2023-01-12T10:29:30.771Z,6480.00
2023-01-12T10:30:30.821Z,6232.00
2023-01-12T10:31:30.813Z,6264.00
2023-01-12T10:32:37.856Z,6440.00
2023-01-12T10:33:30.726Z,6640.00
2023-01-12T10:34:30.744Z,6768.00
2023-01-12T10:35:30.687Z,6424.00
2023-01-12T10:36:30.695Z,5668.00
2023-01-12T10:37:30.662Z,5616.00
2023-01-12T10:38:30.655Z,5668.00
2023-01-12T10:39:30.637Z,5736.00
2023-01-12T10:40:30.742Z,6156.00
2023-01-12T10:41:30.624Z,6104.00
2023-01-12T10:42:30.627Z,6576.00
2023-01-12T10:43:31.575Z,6680.00
2023-01-12T10:44:30.595Z,6520.00
2023-01-12T10:45:30.671Z,5916.00
2023-01-12T10:46:30.577Z,5336.00
2023-01-12T10:47:30.558Z,5120.00
2023-01-12T10:48:30.609Z,4904.00
2023-01-12T10:49:30.543Z,4712.00
2023-01-12T10:50:30.514Z,4672.00
2023-01-12T10:51:30.492Z,4412.00
2023-01-12T10:52:30.503Z,4592.00
2023-01-12T10:53:30.472Z,4512.00
2023-01-12T10:54:30.444Z,3796.00
2023-01-12T10:55:30.425Z,3516.00
2023-01-12T10:56:30.419Z,3484.00
2023-01-12T10:57:30.466Z,4180.00
2023-01-12T10:58:30.426Z,4484.00
2023-01-12T10:59:30.392Z,4540.00
2023-01-12T11:00:30.386Z,4564.00
2023-01-12T11:01:30.483Z,4496.00
2023-01-12T11:02:30.405Z,4220.00
2023-01-12T11:03:30.351Z,4312.00
2023-01-12T11:04:30.385Z,4412.00
2023-01-12T11:05:30.311Z,4400.00
2023-01-12T11:06:30.295Z,4428.00
2023-01-12T11:07:30.273Z,4424.00
2023-01-12T11:08:30.276Z,4724.00
2023-01-12T11:09:30.295Z,4916.00
2023-01-12T11:10:30.241Z,5280.00
2023-01-12T11:11:30.242Z,5372.00
2023-01-12T11:12:30.249Z,4800.00
2023-01-12T11:13:30.212Z,5812.00
2023-01-12T11:14:30.175Z,5632.00
2023-01-12T11:15:30.375Z,5396.00
2023-01-12T11:16:30.281Z,5188.00
2023-01-12T11:17:30.182Z,5004.00
2023-01-12T11:18:30.146Z,4444.00
2023-01-12T11:19:30.118Z,4128.00
2023-01-12T11:20:30.116Z,4288.00
2023-01-12T11:21:30.091Z,4392.00
2023-01-12T11:22:30.087Z,4476.00
2023-01-12T11:23:30.062Z,3852.00
2023-01-12T11:24:30.064Z,3284.00
2023-01-12T11:25:30.054Z,3256.00
2023-01-12T11:26:30.082Z,3344.00
2023-01-12T11:27:30.040Z,3568.00
2023-01-12T11:28:30.016Z,3772.00
2023-01-12T11:29:30.024Z,3288.00
2023-01-12T11:30:30.014Z,3272.00
2023-01-12T11:31:29.961Z,3336.00
2023-01-12T11:32:29.999Z,3076.00
2023-01-12T11:33:30.016Z,2516.00
2023-01-12T11:34:29.936Z,2244.00
2023-01-12T11:35:29.931Z,2296.00
2023-01-12T11:36:29.901Z,2348.00
2023-01-12T11:37:29.928Z,2652.00
2023-01-12T11:38:29.868Z,2660.00
2023-01-12T11:39:29.874Z,2648.00
2023-01-12T11:40:29.925Z,2664.00
2023-01-12T11:41:29.831Z,2832.00
2023-01-12T11:42:29.844Z,2860.00
2023-01-12T11:43:29.845Z,2596.00
2023-01-12T11:44:29.802Z,2396.00
2023-01-12T11:45:29.787Z,2404.00
2023-01-12T11:46:29.876Z,2412.00
2023-01-12T11:47:29.757Z,2148.00
2023-01-12T11:48:29.770Z,1972.00
2023-01-12T11:49:29.732Z,1824.00
2023-01-12T11:50:29.709Z,1808.00
2023-01-12T11:51:29.712Z,1712.00
2023-01-12T11:52:29.708Z,1740.00
2023-01-12T11:53:29.712Z,2080.00
2023-01-12T11:54:29.708Z,2940.00
2023-01-12T11:55:29.650Z,4708.00
2023-01-12T11:56:29.635Z,6248.00
2023-01-12T11:57:29.628Z,5836.00
2023-01-12T11:58:29.595Z,5556.00
2023-01-12T11:59:29.604Z,6488.00
2023-01-12T12:00:29.602Z,7060.00
2023-01-12T12:01:29.609Z,6548.00
2023-01-12T12:02:29.580Z,6400.00
2023-01-12T12:03:29.621Z,6256.00
2023-01-12T12:04:29.527Z,5680.00
2023-01-12T12:05:29.530Z,5224.00
2023-01-12T12:06:29.508Z,3944.00
2023-01-12T12:07:29.486Z,3364.00
2023-01-12T12:08:29.466Z,3444.00
2023-01-12T12:09:29.456Z,3712.00
2023-01-12T12:10:29.451Z,3508.00
2023-01-12T12:11:29.491Z,2932.00
2023-01-12T12:12:29.416Z,2524.00
2023-01-12T12:13:29.416Z,2588.00
2023-01-12T12:14:29.403Z,3312.00
2023-01-12T12:15:29.404Z,4528.00
2023-01-12T12:16:29.388Z,5412.00
2023-01-12T12:17:29.396Z,5892.00
2023-01-12T12:18:29.396Z,5676.00
2023-01-12T12:19:29.591Z,5128.00
2023-01-12T12:20:29.336Z,4996.00
2023-01-12T12:21:29.351Z,4600.00
2023-01-12T12:22:29.403Z,5008.00
2023-01-12T12:23:29.288Z,5472.00
2023-01-12T12:24:29.343Z,6748.00
2023-01-12T12:25:29.288Z,7268.00
2023-01-12T12:26:29.300Z,6688.00
2023-01-12T12:27:29.272Z,5428.00
2023-01-12T12:28:29.278Z,4084.00
2023-01-12T12:29:29.225Z,3612.00
2023-01-12T12:30:29.263Z,3416.00
2023-01-12T12:31:29.963Z,2884.00
2023-01-12T12:32:29.225Z,3116.00
2023-01-12T12:33:29.147Z,2756.00
2023-01-12T12:34:29.164Z,2592.00
2023-01-12T12:35:29.129Z,2352.00
2023-01-12T12:36:29.111Z,2348.00
2023-01-12T12:37:29.123Z,2808.00
2023-01-12T12:38:29.062Z,2904.00
2023-01-12T12:39:29.052Z,3388.00
2023-01-12T12:40:29.036Z,3624.00
2023-01-12T12:41:29.047Z,4152.00
2023-01-12T12:42:29.009Z,4160.00
2023-01-12T12:43:29.003Z,4332.00
2023-01-12T12:44:28.981Z,3988.00